Carrbridge, United Kingdom
Current Conditions -  °F | °C
As of 2:20 PM on Wednesday 22 Oct 2014 (Local Time) from EGPE Reporting Station
Scattered Clouds Scattered Clouds  
Wind Chill: 55°   Ceiling: Unl
Heat Index: 55°   Visibility: 6mi
Dew Point: 52°   Wind: 20mph
Humidity: 88%   Direction: 230°SW
Pressure: 29.8"   Gusts: NA
Location:  57.28°N, 3.81°W
Report Text: EGPE 221320Z 23017KT 9999 FEW008 SCT048 13/11 Q1009
Loading
Personal Weather Stations






























Interactive Weather Map
Tropical Storm Tracking
New forecast layout! Learn more

10-Day Weather Forecast

Advertisements
Track Severe Weather on mobile